KGMJ

Grove Municipal Airport

Grove, Oklahoma, USA
METAR KGMJ 170515Z AUTO 00000KT 10SM CLR 05/05 A3032 RMK AO2
Observed Flight Rules
Oct-17 @ 05:15 UTC (27 minutes ago) Visual Flight Rules
Visibility Clouds
10 miles
  • Clear skies
Temperatures Readings
Current 5°C / 41°F
Dewpoint 5°C / 41°F
Humidity 100%
Altimeter 30.32" Hg
Pressure 1027 hPa
Elevation 254
METAR KGMJ 170515Z AUTO 00000KT 10SM CLR 05/05 A3032 RMK AO2
Observed Flight Rules
Oct-17 @ 05:15 UTC
(27 minutes ago)
VFR
Clouds
  • Clear skies
Temperature Dewpoint
5°C / 41°F 5°C / 41°F
Humidity Altimeter Pressure
100% 30.32" Hg 1027 hPa